sensor_id;sensor_type;location;lat;lon;timestamp;temperature;humidity
33207;DHT22;19565;46.602;11.534;2023-05-20T00:01:59;15.10;99.90
33207;DHT22;19565;46.602;11.534;2023-05-20T00:04:27;15.00;99.90
33207;DHT22;19565;46.602;11.534;2023-05-20T00:06:55;15.10;99.90
33207;DHT22;19565;46.602;11.534;2023-05-20T00:09:23;15.20;99.90
33207;DHT22;19565;46.602;11.534;2023-05-20T00:11:51;15.20;99.90
33207;DHT22;19565;46.602;11.534;2023-05-20T00:14:19;15.20;99.90
33207;DHT22;19565;46.602;11.534;2023-05-20T00:16:49;15.20;99.90
33207;DHT22;19565;46.602;11.534;2023-05-20T00:19:17;15.20;99.90
33207;DHT22;19565;46.602;11.534;2023-05-20T00:21:45;15.20;99.90
33207;DHT22;19565;46.602;11.534;2023-05-20T00:24:13;15.20;99.90
33207;DHT22;19565;46.602;11.534;2023-05-20T00:26:41;15.20;99.90
33207;DHT22;19565;46.602;11.534;2023-05-20T00:29:09;15.20;99.90
33207;DHT22;19565;46.602;11.534;2023-05-20T00:31:37;15.20;99.90
33207;DHT22;19565;46.602;11.534;2023-05-20T00:34:07;15.20;99.90
33207;DHT22;19565;46.602;11.534;2023-05-20T00:36:35;15.20;99.90
33207;DHT22;19565;46.602;11.534;2023-05-20T00:39:03;15.20;99.90
33207;DHT22;19565;46.602;11.534;2023-05-20T00:41:31;15.20;99.90
33207;DHT22;19565;46.602;11.534;2023-05-20T00:43:59;15.20;99.90
33207;DHT22;19565;46.602;11.534;2023-05-20T00:46:28;15.20;99.90
33207;DHT22;19565;46.602;11.534;2023-05-20T00:48:56;15.20;99.90
33207;DHT22;19565;46.602;11.534;2023-05-20T00:51:26;15.10;99.90
33207;DHT22;19565;46.602;11.534;2023-05-20T00:53:55;15.20;99.90
33207;DHT22;19565;46.602;11.534;2023-05-20T00:56:23;15.10;99.90
33207;DHT22;19565;46.602;11.534;2023-05-20T00:58:52;15.10;99.90
33207;DHT22;19565;46.602;11.534;2023-05-20T01:01:20;15.10;99.90
33207;DHT22;19565;46.602;11.534;2023-05-20T01:03:48;15.10;99.90
33207;DHT22;19565;46.602;11.534;2023-05-20T01:06:16;15.20;99.90
33207;DHT22;19565;46.602;11.534;2023-05-20T01:08:45;15.10;99.90
33207;DHT22;19565;46.602;11.534;2023-05-20T01:11:19;15.20;99.90
33207;DHT22;19565;46.602;11.534;2023-05-20T01:13:54;15.10;99.90
33207;DHT22;19565;46.602;11.534;2023-05-20T01:16:23;15.10;99.90
33207;DHT22;19565;46.602;11.534;2023-05-20T01:18:54;15.10;99.90
33207;DHT22;19565;46.602;11.534;2023-05-20T01:21:23;15.10;99.90
33207;DHT22;19565;46.602;11.534;2023-05-20T01:23:53;15.00;99.90
33207;DHT22;19565;46.602;11.534;2023-05-20T01:26:21;14.90;99.90
33207;DHT22;19565;46.602;11.534;2023-05-20T01:28:53;15.00;99.90
33207;DHT22;19565;46.602;11.534;2023-05-20T01:31:26;15.00;99.90
33207;DHT22;19565;46.602;11.534;2023-05-20T01:33:56;15.00;99.90
33207;DHT22;19565;46.602;11.534;2023-05-20T01:36:25;15.00;99.90
33207;DHT22;19565;46.602;11.534;2023-05-20T01:38:56;15.00;99.90
33207;DHT22;19565;46.602;11.534;2023-05-20T01:41:25;15.00;99.90
33207;DHT22;19565;46.602;11.534;2023-05-20T01:43:54;15.10;99.90
33207;DHT22;19565;46.602;11.534;2023-05-20T01:46:22;15.00;99.90
33207;DHT22;19565;46.602;11.534;2023-05-20T01:48:50;15.10;99.90
33207;DHT22;19565;46.602;11.534;2023-05-20T01:51:18;15.10;99.90
33207;DHT22;19565;46.602;11.534;2023-05-20T01:53:46;15.10;99.90
33207;DHT22;19565;46.602;11.534;2023-05-20T01:56:16;15.00;99.90
33207;DHT22;19565;46.602;11.534;2023-05-20T01:58:44;15.00;99.90
33207;DHT22;19565;46.602;11.534;2023-05-20T02:01:12;15.10;99.90
33207;DHT22;19565;46.602;11.534;2023-05-20T02:03:40;15.10;99.90
33207;DHT22;19565;46.602;11.534;2023-05-20T02:06:08;15.10;99.90
33207;DHT22;19565;46.602;11.534;2023-05-20T02:08:37;15.10;99.90
33207;DHT22;19565;46.602;11.534;2023-05-20T02:11:05;15.10;99.90
33207;DHT22;19565;46.602;11.534;2023-05-20T02:13:34;15.10;99.90
33207;DHT22;19565;46.602;11.534;2023-05-20T02:16:02;15.10;99.90
33207;DHT22;19565;46.602;11.534;2023-05-20T02:18:30;15.00;99.90
33207;DHT22;19565;46.602;11.534;2023-05-20T02:21:01;15.00;99.90
33207;DHT22;19565;46.602;11.534;2023-05-20T02:23:30;15.00;99.90
33207;DHT22;19565;46.602;11.534;2023-05-20T02:25:58;15.10;99.90
33207;DHT22;19565;46.602;11.534;2023-05-20T02:28:26;15.00;99.90
33207;DHT22;19565;46.602;11.534;2023-05-20T02:30:56;15.00;99.90
33207;DHT22;19565;46.602;11.534;2023-05-20T02:33:24;15.00;99.90
33207;DHT22;19565;46.602;11.534;2023-05-20T02:35:53;15.00;99.90
33207;DHT22;19565;46.602;11.534;2023-05-20T02:38:21;15.00;99.90
33207;DHT22;19565;46.602;11.534;2023-05-20T02:40:49;15.00;99.90
33207;DHT22;19565;46.602;11.534;2023-05-20T02:43:17;14.90;99.90
33207;DHT22;19565;46.602;11.534;2023-05-20T02:45:46;14.90;99.90
33207;DHT22;19565;46.602;11.534;2023-05-20T02:48:15;14.90;99.90
33207;DHT22;19565;46.602;11.534;2023-05-20T02:50:44;14.90;99.90
33207;DHT22;19565;46.602;11.534;2023-05-20T02:53:13;14.90;99.90
33207;DHT22;19565;46.602;11.534;2023-05-20T02:55:41;14.90;99.90
33207;DHT22;19565;46.602;11.534;2023-05-20T02:58:10;14.90;99.90
33207;DHT22;19565;46.602;11.534;2023-05-20T03:00:39;14.90;99.90
33207;DHT22;19565;46.602;11.534;2023-05-20T03:03:07;14.90;99.90
33207;DHT22;19565;46.602;11.534;2023-05-20T03:05:37;14.90;99.90
33207;DHT22;19565;46.602;11.534;2023-05-20T03:08:07;14.90;99.90
33207;DHT22;19565;46.602;11.534;2023-05-20T03:10:36;14.80;99.90
33207;DHT22;19565;46.602;11.534;2023-05-20T03:13:05;14.90;99.90
33207;DHT22;19565;46.602;11.534;2023-05-20T03:15:35;14.90;99.90
33207;DHT22;19565;46.602;11.534;2023-05-20T03:18:03;14.90;99.90
33207;DHT22;19565;46.602;11.534;2023-05-20T03:20:31;14.90;99.90
33207;DHT22;19565;46.602;11.534;2023-05-20T03:23:04;14.90;99.90
33207;DHT22;19565;46.602;11.534;2023-05-20T03:25:33;14.90;99.90
33207;DHT22;19565;46.602;11.534;2023-05-20T03:28:01;14.80;99.90
33207;DHT22;19565;46.602;11.534;2023-05-20T03:30:29;14.80;99.90
33207;DHT22;19565;46.602;11.534;2023-05-20T03:32:58;14.70;99.90
33207;DHT22;19565;46.602;11.534;2023-05-20T03:35:26;14.70;99.90
33207;DHT22;19565;46.602;11.534;2023-05-20T03:37:54;14.70;99.90
33207;DHT22;19565;46.602;11.534;2023-05-20T03:40:23;14.70;99.90
33207;DHT22;19565;46.602;11.534;2023-05-20T03:42:51;14.70;99.90
33207;DHT22;19565;46.602;11.534;2023-05-20T03:45:19;14.70;99.90
33207;DHT22;19565;46.602;11.534;2023-05-20T03:47:47;14.70;99.90
33207;DHT22;19565;46.602;11.534;2023-05-20T03:50:16;14.70;99.90
33207;DHT22;19565;46.602;11.534;2023-05-20T03:52:44;14.70;99.90
33207;DHT22;19565;46.602;11.534;2023-05-20T03:55:12;14.70;99.90
33207;DHT22;19565;46.602;11.534;2023-05-20T03:57:42;14.70;99.90
33207;DHT22;19565;46.602;11.534;2023-05-20T04:00:10;14.70;99.90
33207;DHT22;19565;46.602;11.534;2023-05-20T04:02:40;14.70;99.90
33207;DHT22;19565;46.602;11.534;2023-05-20T04:05:08;14.70;99.90
33207;DHT22;19565;46.602;11.534;2023-05-20T04:07:37;14.70;99.90
33207;DHT22;19565;46.602;11.534;2023-05-20T04:10:06;14.70;99.90
33207;DHT22;19565;46.602;11.534;2023-05-20T04:12:34;14.60;99.90
33207;DHT22;19565;46.602;11.534;2023-05-20T04:15:06;14.70;99.90
33207;DHT22;19565;46.602;11.534;2023-05-20T04:17:34;14.70;99.90
33207;DHT22;19565;46.602;11.534;2023-05-20T04:20:05;14.70;99.90
33207;DHT22;19565;46.602;11.534;2023-05-20T04:22:33;14.70;99.90
33207;DHT22;19565;46.602;11.534;2023-05-20T04:25:02;14.70;99.90
33207;DHT22;19565;46.602;11.534;2023-05-20T04:27:32;14.70;99.90
33207;DHT22;19565;46.602;11.534;2023-05-20T04:30:00;14.70;99.90
33207;DHT22;19565;46.602;11.534;2023-05-20T04:32:31;14.70;99.90
33207;DHT22;19565;46.602;11.534;2023-05-20T04:35:00;14.70;99.90
33207;DHT22;19565;46.602;11.534;2023-05-20T04:37:28;14.60;99.90
33207;DHT22;19565;46.602;11.534;2023-05-20T04:39:57;14.70;99.90
33207;DHT22;19565;46.602;11.534;2023-05-20T04:42:28;14.70;99.90
33207;DHT22;19565;46.602;11.534;2023-05-20T04:44:56;14.70;99.90
33207;DHT22;19565;46.602;11.534;2023-05-20T04:47:27;14.80;99.90
33207;DHT22;19565;46.602;11.534;2023-05-20T04:49:57;14.80;99.90
33207;DHT22;19565;46.602;11.534;2023-05-20T04:52:25;14.70;99.90
33207;DHT22;19565;46.602;11.534;2023-05-20T04:54:53;14.50;99.90
33207;DHT22;19565;46.602;11.534;2023-05-20T04:57:23;14.50;99.90
33207;DHT22;19565;46.602;11.534;2023-05-20T04:59:52;14.60;99.90
33207;DHT22;19565;46.602;11.534;2023-05-20T05:02:24;14.70;99.90
33207;DHT22;19565;46.602;11.534;2023-05-20T05:04:52;14.70;99.90
33207;DHT22;19565;46.602;11.534;2023-05-20T05:07:21;14.80;99.90
33207;DHT22;19565;46.602;11.534;2023-05-20T05:09:49;14.80;99.90
33207;DHT22;19565;46.602;11.534;2023-05-20T05:12:18;14.90;99.90
33207;DHT22;19565;46.602;11.534;2023-05-20T05:14:45;14.90;99.90
33207;DHT22;19565;46.602;11.534;2023-05-20T05:17:13;15.00;99.90
33207;DHT22;19565;46.602;11.534;2023-05-20T05:19:42;15.00;99.90
33207;DHT22;19565;46.602;11.534;2023-05-20T05:22:09;15.00;99.90
33207;DHT22;19565;46.602;11.534;2023-05-20T05:24:39;15.00;99.90
33207;DHT22;19565;46.602;11.534;2023-05-20T05:27:07;15.00;99.90
33207;DHT22;19565;46.602;11.534;2023-05-20T05:29:35;15.00;99.90
33207;DHT22;19565;46.602;11.534;2023-05-20T05:32:03;14.90;99.90
33207;DHT22;19565;46.602;11.534;2023-05-20T05:34:32;14.90;99.90
33207;DHT22;19565;46.602;11.534;2023-05-20T05:37:00;15.00;99.90
33207;DHT22;19565;46.602;11.534;2023-05-20T05:39:28;15.00;99.90
33207;DHT22;19565;46.602;11.534;2023-05-20T05:41:57;15.10;99.90
33207;DHT22;19565;46.602;11.534;2023-05-20T05:44:25;15.10;99.90
33207;DHT22;19565;46.602;11.534;2023-05-20T05:46:53;15.00;99.90
33207;DHT22;19565;46.602;11.534;2023-05-20T05:49:21;14.90;99.90
33207;DHT22;19565;46.602;11.534;2023-05-20T05:51:50;15.00;99.90
33207;DHT22;19565;46.602;11.534;2023-05-20T05:54:18;15.10;99.90
33207;DHT22;19565;46.602;11.534;2023-05-20T05:56:47;15.10;99.90
33207;DHT22;19565;46.602;11.534;2023-05-20T05:59:16;15.20;99.90
33207;DHT22;19565;46.602;11.534;2023-05-20T06:01:44;15.20;99.90
33207;DHT22;19565;46.602;11.534;2023-05-20T06:04:13;15.30;99.90
33207;DHT22;19565;46.602;11.534;2023-05-20T06:06:41;15.30;99.90
33207;DHT22;19565;46.602;11.534;2023-05-20T06:09:09;15.30;99.90
33207;DHT22;19565;46.602;11.534;2023-05-20T06:11:37;15.30;99.90
33207;DHT22;19565;46.602;11.534;2023-05-20T06:14:08;15.40;99.90
33207;DHT22;19565;46.602;11.534;2023-05-20T06:16:37;15.40;99.90
33207;DHT22;19565;46.602;11.534;2023-05-20T06:19:05;15.40;99.90
33207;DHT22;19565;46.602;11.534;2023-05-20T06:21:35;15.50;99.90
33207;DHT22;19565;46.602;11.534;2023-05-20T06:24:04;15.50;99.90
33207;DHT22;19565;46.602;11.534;2023-05-20T06:26:32;15.50;99.90
33207;DHT22;19565;46.602;11.534;2023-05-20T06:29:02;15.50;99.90
33207;DHT22;19565;46.602;11.534;2023-05-20T06:31:30;15.40;99.90
33207;DHT22;19565;46.602;11.534;2023-05-20T06:34:00;15.40;99.90
33207;DHT22;19565;46.602;11.534;2023-05-20T06:36:28;15.40;99.90
33207;DHT22;19565;46.602;11.534;2023-05-20T06:38:59;15.40;99.90
33207;DHT22;19565;46.602;11.534;2023-05-20T06:41:27;15.50;99.90
33207;DHT22;19565;46.602;11.534;2023-05-20T06:43:55;15.50;99.90
33207;DHT22;19565;46.602;11.534;2023-05-20T06:46:23;15.50;99.90
33207;DHT22;19565;46.602;11.534;2023-05-20T06:48:51;15.50;99.90
33207;DHT22;19565;46.602;11.534;2023-05-20T06:51:21;15.50;99.90
33207;DHT22;19565;46.602;11.534;2023-05-20T06:53:49;15.60;99.90
33207;DHT22;19565;46.602;11.534;2023-05-20T06:56:17;15.60;99.90
33207;DHT22;19565;46.602;11.534;2023-05-20T06:58:45;15.70;99.90
33207;DHT22;19565;46.602;11.534;2023-05-20T07:01:13;15.70;99.90
33207;DHT22;19565;46.602;11.534;2023-05-20T07:03:44;15.70;99.90
33207;DHT22;19565;46.602;11.534;2023-05-20T07:06:12;15.80;99.90
33207;DHT22;19565;46.602;11.534;2023-05-20T07:08:41;15.80;99.90
33207;DHT22;19565;46.602;11.534;2023-05-20T07:11:09;15.90;99.90
33207;DHT22;19565;46.602;11.534;2023-05-20T07:13:37;15.90;99.90
33207;DHT22;19565;46.602;11.534;2023-05-20T07:16:05;16.00;99.90
33207;DHT22;19565;46.602;11.534;2023-05-20T07:18:33;16.00;99.90
33207;DHT22;19565;46.602;11.534;2023-05-20T07:21:02;15.90;99.90
33207;DHT22;19565;46.602;11.534;2023-05-20T07:23:30;16.00;99.90
33207;DHT22;19565;46.602;11.534;2023-05-20T07:25:59;16.00;99.90
33207;DHT22;19565;46.602;11.534;2023-05-20T07:28:27;15.90;99.90
33207;DHT22;19565;46.602;11.534;2023-05-20T07:30:55;16.00;99.90
33207;DHT22;19565;46.602;11.534;2023-05-20T07:33:25;16.10;99.90
33207;DHT22;19565;46.602;11.534;2023-05-20T07:35:55;16.20;99.90
33207;DHT22;19565;46.602;11.534;2023-05-20T07:38:23;16.20;99.90
33207;DHT22;19565;46.602;11.534;2023-05-20T07:40:51;16.20;99.90
33207;DHT22;19565;46.602;11.534;2023-05-20T07:43:20;16.30;99.90
33207;DHT22;19565;46.602;11.534;2023-05-20T07:45:48;16.30;99.90
33207;DHT22;19565;46.602;11.534;2023-05-20T07:48:16;16.30;99.90
33207;DHT22;19565;46.602;11.534;2023-05-20T07:50:44;16.30;99.90
33207;DHT22;19565;46.602;11.534;2023-05-20T07:53:12;16.20;99.90
33207;DHT22;19565;46.602;11.534;2023-05-20T07:55:40;16.30;99.90
33207;DHT22;19565;46.602;11.534;2023-05-20T07:58:08;16.30;99.90
33207;DHT22;19565;46.602;11.534;2023-05-20T08:00:38;16.30;99.90
33207;DHT22;19565;46.602;11.534;2023-05-20T08:03:06;16.40;99.90
33207;DHT22;19565;46.602;11.534;2023-05-20T08:05:36;16.40;99.90
33207;DHT22;19565;46.602;11.534;2023-05-20T08:08:04;16.40;99.90
33207;DHT22;19565;46.602;11.534;2023-05-20T08:10:32;16.40;99.90
33207;DHT22;19565;46.602;11.534;2023-05-20T08:13:00;16.50;99.90
33207;DHT22;19565;46.602;11.534;2023-05-20T08:15:28;16.60;99.90
33207;DHT22;19565;46.602;11.534;2023-05-20T08:17:58;16.60;99.90
33207;DHT22;19565;46.602;11.534;2023-05-20T08:20:26;16.60;99.90
33207;DHT22;19565;46.602;11.534;2023-05-20T08:22:55;16.60;99.90
33207;DHT22;19565;46.602;11.534;2023-05-20T08:25:23;16.60;99.90
33207;DHT22;19565;46.602;11.534;2023-05-20T08:27:51;16.60;99.90
33207;DHT22;19565;46.602;11.534;2023-05-20T08:30:19;16.70;99.90
33207;DHT22;19565;46.602;11.534;2023-05-20T08:32:47;16.80;99.90
33207;DHT22;19565;46.602;11.534;2023-05-20T08:35:17;16.80;99.90
33207;DHT22;19565;46.602;11.534;2023-05-20T08:37:47;16.90;99.90
33207;DHT22;19565;46.602;11.534;2023-05-20T08:40:15;17.00;99.90
33207;DHT22;19565;46.602;11.534;2023-05-20T08:42:43;17.10;99.90
33207;DHT22;19565;46.602;11.534;2023-05-20T08:45:12;17.10;99.90
33207;DHT22;19565;46.602;11.534;2023-05-20T08:47:41;17.10;99.90
33207;DHT22;19565;46.602;11.534;2023-05-20T08:50:10;17.20;99.90
33207;DHT22;19565;46.602;11.534;2023-05-20T08:52:42;17.20;99.90
33207;DHT22;19565;46.602;11.534;2023-05-20T08:55:14;17.20;99.90
33207;DHT22;19565;46.602;11.534;2023-05-20T08:57:43;17.20;99.90
33207;DHT22;19565;46.602;11.534;2023-05-20T09:00:14;17.20;99.90
33207;DHT22;19565;46.602;11.534;2023-05-20T09:02:44;17.20;99.90
33207;DHT22;19565;46.602;11.534;2023-05-20T09:05:13;17.20;99.90
33207;DHT22;19565;46.602;11.534;2023-05-20T09:07:42;17.30;99.90
33207;DHT22;19565;46.602;11.534;2023-05-20T09:10:10;17.30;99.90
33207;DHT22;19565;46.602;11.534;2023-05-20T09:12:39;17.30;99.90
33207;DHT22;19565;46.602;11.534;2023-05-20T09:15:07;17.30;99.90
33207;DHT22;19565;46.602;11.534;2023-05-20T09:17:36;17.40;99.90
33207;DHT22;19565;46.602;11.534;2023-05-20T09:20:06;17.40;99.90
33207;DHT22;19565;46.602;11.534;2023-05-20T09:22:35;17.50;99.90
33207;DHT22;19565;46.602;11.534;2023-05-20T09:25:07;17.60;99.90
33207;DHT22;19565;46.602;11.534;2023-05-20T09:27:38;17.60;99.90
33207;DHT22;19565;46.602;11.534;2023-05-20T09:30:08;17.60;99.90
33207;DHT22;19565;46.602;11.534;2023-05-20T09:32:38;17.60;99.90
33207;DHT22;19565;46.602;11.534;2023-05-20T09:35:07;17.50;99.90
33207;DHT22;19565;46.602;11.534;2023-05-20T09:37:35;17.50;99.90
33207;DHT22;19565;46.602;11.534;2023-05-20T09:40:07;17.50;99.90
33207;DHT22;19565;46.602;11.534;2023-05-20T09:42:38;17.40;99.90
33207;DHT22;19565;46.602;11.534;2023-05-20T09:45:07;17.40;99.90
33207;DHT22;19565;46.602;11.534;2023-05-20T09:47:37;17.40;99.90
33207;DHT22;19565;46.602;11.534;2023-05-20T09:50:07;17.40;99.90
33207;DHT22;19565;46.602;11.534;2023-05-20T09:52:37;17.30;99.90
33207;DHT22;19565;46.602;11.534;2023-05-20T09:55:08;17.40;99.90
33207;DHT22;19565;46.602;11.534;2023-05-20T09:57:37;17.30;99.90
33207;DHT22;19565;46.602;11.534;2023-05-20T10:00:07;17.40;99.90
33207;DHT22;19565;46.602;11.534;2023-05-20T10:02:36;17.30;99.90
33207;DHT22;19565;46.602;11.534;2023-05-20T10:05:09;17.30;99.90
33207;DHT22;19565;46.602;11.534;2023-05-20T10:07:58;17.30;99.90
33207;DHT22;19565;46.602;11.534;2023-05-20T10:10:40;17.20;99.90
33207;DHT22;19565;46.602;11.534;2023-05-20T10:13:26;17.20;99.90
33207;DHT22;19565;46.602;11.534;2023-05-20T10:16:07;17.10;99.90
33207;DHT22;19565;46.602;11.534;2023-05-20T10:18:46;17.10;99.90
33207;DHT22;19565;46.602;11.534;2023-05-20T10:21:17;17.20;99.90
33207;DHT22;19565;46.602;11.534;2023-05-20T10:23:48;17.10;99.90
33207;DHT22;19565;46.602;11.534;2023-05-20T10:26:17;17.10;99.90
33207;DHT22;19565;46.602;11.534;2023-05-20T10:28:46;17.00;99.90
33207;DHT22;19565;46.602;11.534;2023-05-20T10:31:15;17.00;99.90
33207;DHT22;19565;46.602;11.534;2023-05-20T10:33:44;17.00;99.90
33207;DHT22;19565;46.602;11.534;2023-05-20T10:36:22;17.00;99.90
33207;DHT22;19565;46.602;11.534;2023-05-20T10:38:53;17.00;99.90
33207;DHT22;19565;46.602;11.534;2023-05-20T10:41:24;17.00;99.90
33207;DHT22;19565;46.602;11.534;2023-05-20T10:44:00;17.00;99.90
33207;DHT22;19565;46.602;11.534;2023-05-20T10:46:29;17.00;99.90
33207;DHT22;19565;46.602;11.534;2023-05-20T10:49:18;17.00;99.90
33207;DHT22;19565;46.602;11.534;2023-05-20T10:51:50;16.90;99.90
33207;DHT22;19565;46.602;11.534;2023-05-20T10:54:18;17.00;99.90
33207;DHT22;19565;46.602;11.534;2023-05-20T10:56:52;17.00;99.90
33207;DHT22;19565;46.602;11.534;2023-05-20T10:59:20;17.00;99.90
33207;DHT22;19565;46.602;11.534;2023-05-20T11:01:49;17.00;99.90
33207;DHT22;19565;46.602;11.534;2023-05-20T11:04:17;17.00;99.90
33207;DHT22;19565;46.602;11.534;2023-05-20T11:06:50;17.00;99.90
33207;DHT22;19565;46.602;11.534;2023-05-20T11:09:20;16.90;99.90
33207;DHT22;19565;46.602;11.534;2023-05-20T11:11:49;16.90;99.90
33207;DHT22;19565;46.602;11.534;2023-05-20T11:14:20;16.90;99.90
33207;DHT22;19565;46.602;11.534;2023-05-20T11:16:51;16.90;99.90
33207;DHT22;19565;46.602;11.534;2023-05-20T11:19:20;16.90;99.90
33207;DHT22;19565;46.602;11.534;2023-05-20T11:21:48;16.90;99.90
33207;DHT22;19565;46.602;11.534;2023-05-20T11:24:22;17.00;99.90
33207;DHT22;19565;46.602;11.534;2023-05-20T11:26:51;17.00;99.90
33207;DHT22;19565;46.602;11.534;2023-05-20T11:29:20;17.00;99.90
33207;DHT22;19565;46.602;11.534;2023-05-20T11:31:49;17.10;99.90
33207;DHT22;19565;46.602;11.534;2023-05-20T11:34:19;17.10;99.90
33207;DHT22;19565;46.602;11.534;2023-05-20T11:36:55;17.10;99.90
33207;DHT22;19565;46.602;11.534;2023-05-20T11:39:24;17.10;99.90
33207;DHT22;19565;46.602;11.534;2023-05-20T11:41:53;17.10;99.90
33207;DHT22;19565;46.602;11.534;2023-05-20T11:44:23;17.00;99.90
33207;DHT22;19565;46.602;11.534;2023-05-20T11:46:59;17.10;99.90
33207;DHT22;19565;46.602;11.534;2023-05-20T11:49:27;17.10;99.90
33207;DHT22;19565;46.602;11.534;2023-05-20T11:51:56;17.10;99.90
33207;DHT22;19565;46.602;11.534;2023-05-20T11:54:24;17.20;99.90
33207;DHT22;19565;46.602;11.534;2023-05-20T11:56:53;17.20;99.90
33207;DHT22;19565;46.602;11.534;2023-05-20T11:59:26;17.20;99.90
33207;DHT22;19565;46.602;11.534;2023-05-20T12:01:54;17.20;99.90
33207;DHT22;19565;46.602;11.534;2023-05-20T12:04:22;17.10;99.90
33207;DHT22;19565;46.602;11.534;2023-05-20T12:06:50;17.10;99.90
33207;DHT22;19565;46.602;11.534;2023-05-20T12:09:19;17.10;99.90
33207;DHT22;19565;46.602;11.534;2023-05-20T12:11:48;17.10;99.90
33207;DHT22;19565;46.602;11.534;2023-05-20T12:14:16;17.00;99.90
33207;DHT22;19565;46.602;11.534;2023-05-20T12:16:45;17.00;99.90
33207;DHT22;19565;46.602;11.534;2023-05-20T12:19:14;17.10;99.90
33207;DHT22;19565;46.602;11.534;2023-05-20T12:21:42;17.10;99.90
33207;DHT22;19565;46.602;11.534;2023-05-20T12:24:12;17.10;99.90
33207;DHT22;19565;46.602;11.534;2023-05-20T12:26:40;17.10;99.90
33207;DHT22;19565;46.602;11.534;2023-05-20T12:29:08;17.10;99.90
33207;DHT22;19565;46.602;11.534;2023-05-20T12:31:36;17.10;99.90
33207;DHT22;19565;46.602;11.534;2023-05-20T12:34:06;17.20;99.90
33207;DHT22;19565;46.602;11.534;2023-05-20T12:36:34;17.20;99.90
33207;DHT22;19565;46.602;11.534;2023-05-20T12:39:03;17.20;99.90
33207;DHT22;19565;46.602;11.534;2023-05-20T12:41:31;17.30;99.90
33207;DHT22;19565;46.602;11.534;2023-05-20T12:43:59;17.20;99.90
33207;DHT22;19565;46.602;11.534;2023-05-20T12:46:28;17.30;99.90
33207;DHT22;19565;46.602;11.534;2023-05-20T12:48:56;17.30;99.90
33207;DHT22;19565;46.602;11.534;2023-05-20T12:51:25;17.40;99.90
33207;DHT22;19565;46.602;11.534;2023-05-20T12:53:53;17.40;99.90
33207;DHT22;19565;46.602;11.534;2023-05-20T12:56:22;17.40;99.90
33207;DHT22;19565;46.602;11.534;2023-05-20T12:58:52;17.40;99.90
33207;DHT22;19565;46.602;11.534;2023-05-20T13:01:20;17.50;99.90
33207;DHT22;19565;46.602;11.534;2023-05-20T13:03:48;17.50;99.90
33207;DHT22;19565;46.602;11.534;2023-05-20T13:06:19;17.60;99.90
33207;DHT22;19565;46.602;11.534;2023-05-20T13:08:48;17.70;99.90
33207;DHT22;19565;46.602;11.534;2023-05-20T13:11:16;17.80;99.90
33207;DHT22;19565;46.602;11.534;2023-05-20T13:13:44;17.90;99.90
33207;DHT22;19565;46.602;11.534;2023-05-20T13:16:12;17.90;99.90
33207;DHT22;19565;46.602;11.534;2023-05-20T13:18:42;18.00;99.90
33207;DHT22;19565;46.602;11.534;2023-05-20T13:21:10;17.90;99.90
33207;DHT22;19565;46.602;11.534;2023-05-20T13:23:40;17.90;99.90
33207;DHT22;19565;46.602;11.534;2023-05-20T13:26:09;17.90;99.90
33207;DHT22;19565;46.602;11.534;2023-05-20T13:28:37;17.90;99.90
33207;DHT22;19565;46.602;11.534;2023-05-20T13:31:05;17.90;99.90
33207;DHT22;19565;46.602;11.534;2023-05-20T13:33:33;17.90;99.90
33207;DHT22;19565;46.602;11.534;2023-05-20T13:36:02;17.90;99.90
33207;DHT22;19565;46.602;11.534;2023-05-20T13:38:30;17.90;99.90
33207;DHT22;19565;46.602;11.534;2023-05-20T13:40:59;17.80;99.90
33207;DHT22;19565;46.602;11.534;2023-05-20T13:43:30;17.80;99.90
33207;DHT22;19565;46.602;11.534;2023-05-20T13:45:58;17.80;99.90
33207;DHT22;19565;46.602;11.534;2023-05-20T13:48:27;17.80;99.90
33207;DHT22;19565;46.602;11.534;2023-05-20T13:50:55;17.80;99.90
33207;DHT22;19565;46.602;11.534;2023-05-20T13:53:23;17.80;99.90
33207;DHT22;19565;46.602;11.534;2023-05-20T13:55:51;17.70;99.90
33207;DHT22;19565;46.602;11.534;2023-05-20T13:58:20;17.80;99.90
33207;DHT22;19565;46.602;11.534;2023-05-20T14:00:49;17.80;99.90
33207;DHT22;19565;46.602;11.534;2023-05-20T14:03:17;17.80;99.90
33207;DHT22;19565;46.602;11.534;2023-05-20T14:05:46;17.80;99.90
33207;DHT22;19565;46.602;11.534;2023-05-20T14:08:14;17.70;99.90
33207;DHT22;19565;46.602;11.534;2023-05-20T14:10:42;17.60;99.90
33207;DHT22;19565;46.602;11.534;2023-05-20T14:13:10;17.60;99.90
33207;DHT22;19565;46.602;11.534;2023-05-20T14:15:38;17.50;99.90
33207;DHT22;19565;46.602;11.534;2023-05-20T14:18:07;17.50;99.90
33207;DHT22;19565;46.602;11.534;2023-05-20T14:20:35;17.40;99.90
33207;DHT22;19565;46.602;11.534;2023-05-20T14:23:03;17.30;99.90
33207;DHT22;19565;46.602;11.534;2023-05-20T14:25:31;17.30;99.90
33207;DHT22;19565;46.602;11.534;2023-05-20T14:27:59;17.30;99.90
33207;DHT22;19565;46.602;11.534;2023-05-20T14:30:27;17.20;99.90
33207;DHT22;19565;46.602;11.534;2023-05-20T14:32:56;17.20;99.90
33207;DHT22;19565;46.602;11.534;2023-05-20T14:35:25;17.10;99.90
33207;DHT22;19565;46.602;11.534;2023-05-20T14:37:53;17.10;99.90
33207;DHT22;19565;46.602;11.534;2023-05-20T14:40:21;17.00;99.90
33207;DHT22;19565;46.602;11.534;2023-05-20T14:42:49;17.10;99.90
33207;DHT22;19565;46.602;11.534;2023-05-20T14:45:18;17.10;99.90
33207;DHT22;19565;46.602;11.534;2023-05-20T14:47:46;17.00;99.90
33207;DHT22;19565;46.602;11.534;2023-05-20T14:50:14;17.00;99.90
33207;DHT22;19565;46.602;11.534;2023-05-20T14:52:43;17.00;99.90
33207;DHT22;19565;46.602;11.534;2023-05-20T14:55:11;17.00;99.90
33207;DHT22;19565;46.602;11.534;2023-05-20T14:57:40;16.90;99.90
33207;DHT22;19565;46.602;11.534;2023-05-20T15:00:09;16.90;99.90
33207;DHT22;19565;46.602;11.534;2023-05-20T15:02:37;16.90;99.90
33207;DHT22;19565;46.602;11.534;2023-05-20T15:05:06;16.90;99.90
33207;DHT22;19565;46.602;11.534;2023-05-20T15:07:34;16.90;99.90
33207;DHT22;19565;46.602;11.534;2023-05-20T15:10:04;16.90;99.90
33207;DHT22;19565;46.602;11.534;2023-05-20T15:12:33;16.90;99.90
33207;DHT22;19565;46.602;11.534;2023-05-20T15:15:01;16.90;99.90
33207;DHT22;19565;46.602;11.534;2023-05-20T15:17:29;16.90;99.90
33207;DHT22;19565;46.602;11.534;2023-05-20T15:19:58;16.90;99.90
33207;DHT22;19565;46.602;11.534;2023-05-20T15:22:26;16.90;99.90
33207;DHT22;19565;46.602;11.534;2023-05-20T15:24:54;17.00;99.90
33207;DHT22;19565;46.602;11.534;2023-05-20T15:27:23;17.00;99.90